Time;durP1;ratioP1;P1;durP2;ratioP2;P2;SDS_P1;SDS_P2;PMS_P1;PMS_P2;Temp;Humidity;BMP_temperature;BMP_pressure;BME280_temperature;BME280_humidity;BME280_pressure;Samples;Min_cycle;Max_cycle;Signal;HPM_P1;HPM_P2
2022/09/19 00:00:10;;;;;;;13.82;3.08;;;;;;;7.55;100.00;95976.34;5069481;28;20044;-76
2022/09/19 00:02:36;;;;;;;15.00;3.10;;;;;;;7.50;100.00;95969.16;5069264;28;20043;-77
2022/09/19 00:05:09;;;;;;;8.68;2.10;;;;;;;7.59;100.00;95972.72;5069553;28;20136;-78
2022/09/19 00:07:36;;;;;;;;;;;;;;;7.65;100.00;95973.41;5070364;28;20040;-76
2022/09/19 00:10:02;;;;;;;12.40;2.75;;;;;;;7.59;100.00;95956.47;5068703;28;19921;-79
2022/09/19 00:12:29;;;;;;;15.30;2.85;;;;;;;7.50;100.00;95961.00;5059939;28;20496;-76
2022/09/19 00:14:57;;;;;;;14.63;2.70;;;;;;;7.50;100.00;95963.72;5073990;28;20049;-77
2022/09/19 00:17:23;;;;;;;11.80;2.67;;;;;;;7.54;100.00;95962.00;5073592;28;20132;-76
2022/09/19 00:19:51;;;;;;;14.73;3.10;;;;;;;7.55;100.00;95950.06;5073816;28;20097;-76
2022/09/19 00:22:19;;;;;;;20.42;4.00;;;;;;;7.61;100.00;95952.66;5070394;28;20106;-77
2022/09/19 00:24:49;;;;;;;8.40;2.38;;;;;;;7.56;100.00;95956.28;5073854;28;20066;-77
2022/09/19 00:27:19;;;;;;;11.57;2.47;;;;;;;7.47;100.00;95958.94;5073138;28;20052;-77
2022/09/19 00:29:46;;;;;;;10.85;2.70;;;;;;;7.46;100.00;95951.09;5073653;28;20054;-77
2022/09/19 00:32:13;;;;;;;13.07;3.15;;;;;;;7.39;100.00;95951.53;5067020;28;20041;-76
2022/09/19 00:34:41;;;;;;;12.20;2.83;;;;;;;7.48;100.00;95948.91;5053385;28;20069;-77
2022/09/19 00:37:08;;;;;;;14.55;3.17;;;;;;;7.48;100.00;95946.19;5052936;28;20124;-76
2022/09/19 00:39:36;;;;;;;13.68;2.40;;;;;;;7.46;100.00;95951.91;5053406;28;20530;-76
2022/09/19 00:42:03;;;;;;;19.17;3.60;;;;;;;7.40;100.00;95953.13;5053752;28;20045;-76
2022/09/19 00:44:55;;;;;;;8.85;2.05;;;;;;;7.50;100.00;95947.47;5053601;28;20408;-76
2022/09/19 00:47:25;;;;;;;10.65;2.50;;;;;;;7.53;100.00;95957.72;5052256;28;20093;-76
2022/09/19 00:49:55;;;;;;;10.80;2.67;;;;;;;7.58;100.00;95954.88;5053279;28;20041;-78
2022/09/19 00:52:27;;;;;;;11.27;2.80;;;;;;;7.50;100.00;95969.16;5055246;28;20052;-76
2022/09/19 00:54:56;;;;;;;9.87;2.33;;;;;;;7.34;100.00;95992.28;5053155;28;20041;-76
2022/09/19 00:57:33;;;;;;;11.80;2.50;;;;;;;7.05;100.00;96009.72;5070360;28;20059;-75
2022/09/19 01:00:00;;;;;;;11.02;1.85;;;;;;;6.72;100.00;96013.66;5072354;28;20036;-74
2022/09/19 01:02:28;;;;;;;9.82;2.00;;;;;;;6.53;100.00;96017.25;5072482;28;20495;-76
2022/09/19 01:04:55;;;;;;;3.92;0.85;;;;;;;6.41;100.00;96019.66;5072910;28;20079;-77
2022/09/19 01:07:29;;;;;;;8.93;1.80;;;;;;;6.41;100.00;96025.06;5072536;28;20056;-78
2022/09/19 01:10:04;;;;;;;6.15;1.23;;;;;;;6.36;100.00;96033.25;5072597;28;20720;-76
2022/09/19 01:12:46;;;;;;;6.15;1.23;;;;;;;6.31;100.00;96030.66;5071410;28;20036;-76
2022/09/19 01:15:36;;;;;;;6.78;1.40;;;;;;;6.29;100.00;96038.25;5072325;28;20080;-78
2022/09/19 01:18:04;;;;;;;7.35;1.55;;;;;;;6.27;100.00;96035.06;5059978;28;20076;-76
2022/09/19 01:20:58;;;;;;;8.93;1.52;;;;;;;6.21;100.00;96036.25;5052682;28;20037;-79
2022/09/19 01:23:36;;;;;;;7.25;1.30;;;;;;;6.16;100.00;96045.25;5062863;28;20066;-76
2022/09/19 01:26:16;;;;;;;13.95;2.25;;;;;;;6.09;100.00;96046.72;5072159;28;20048;-78
2022/09/19 01:28:48;;;;;;;8.52;1.48;;;;;;;6.07;100.00;96052.44;5072694;28;20052;-77
2022/09/19 01:31:21;;;;;;;7.70;1.35;;;;;;;6.05;100.00;96048.41;5072104;28;20045;-76
2022/09/19 01:33:53;;;;;;;;;;;;;;;6.09;100.00;96047.53;5072965;28;20130;-76
2022/09/19 01:36:26;;;;;;;10.10;1.80;;;;;;;6.05;100.00;96051.13;5072049;28;19920;-77
2022/09/19 01:38:53;;;;;;;;;;;;;;;6.09;100.00;96050.25;5072783;28;20049;-76
2022/09/19 01:41:21;;;;;;;9.07;1.60;;;;;;;6.12;100.00;96046.94;5071806;28;19920;-76
2022/09/19 01:43:49;;;;;;;9.02;1.48;;;;;;;6.17;100.00;96054.19;5053303;28;20045;-77
2022/09/19 01:46:27;;;;;;;13.88;2.38;;;;;;;6.20;100.00;96050.88;5052636;28;20052;-77
2022/09/19 01:48:59;;;;;;;9.30;1.60;;;;;;;6.26;100.00;96053.19;5052563;28;20041;-75
2022/09/19 01:51:32;;;;;;;10.10;1.77;;;;;;;6.23;100.00;96050.28;5051894;28;20112;-77
2022/09/19 01:54:27;;;;;;;7.53;1.42;;;;;;;6.22;100.00;96049.47;5068466;28;20052;-75
2022/09/19 01:57:08;;;;;;;12.35;2.00;;;;;;;6.23;100.00;96055.69;5071930;28;20036;-75
2022/09/19 01:59:50;;;;;;;7.35;1.25;;;;;;;6.30;100.00;96066.91;5067825;28;20037;-77
2022/09/19 02:02:29;;;;;;;12.07;1.98;;;;;;;6.27;100.00;96059.41;5049866;28;20044;-77
2022/09/19 02:05:04;;;;;;;10.00;1.60;;;;;;;6.30;100.00;96064.19;5051778;28;20053;-75
2022/09/19 02:07:42;;;;;;;4.28;0.80;;;;;;;6.34;100.00;96067.13;5060708;28;20037;-76
2022/09/19 02:10:13;;;;;;;10.00;1.80;;;;;;;6.32;100.00;96070.13;5071209;28;20045;-76
2022/09/19 02:12:42;;;;;;;14.20;2.17;;;;;;;6.26;100.00;96065.88;5071599;28;20059;-76
2022/09/19 02:15:13;;;;;;;11.65;1.85;;;;;;;6.24;100.00;96068.09;5071358;28;20041;-76
2022/09/19 02:17:44;;;;;;;12.18;1.90;;;;;;;6.22;100.00;96065.69;5071758;28;20061;-78
2022/09/19 02:20:17;;;;;;;13.38;2.08;;;;;;;6.25;100.00;96075.09;5071021;28;20048;-76
2022/09/19 02:22:48;;;;;;;9.77;1.30;;;;;;;6.32;100.00;96080.94;5070299;28;20067;-76
2022/09/19 02:25:20;;;;;;;11.25;1.77;;;;;;;6.39;100.00;96086.75;5071019;28;20441;-76
2022/09/19 02:27:51;;;;;;;6.22;1.00;;;;;;;6.42;100.00;96086.19;5071564;28;20438;-76
2022/09/19 02:30:20;;;;;;;9.27;1.50;;;;;;;6.33;100.00;96082.56;5071047;28;20044;-78
2022/09/19 02:32:48;;;;;;;9.50;1.58;;;;;;;6.31;100.00;96090.13;5071338;28;20041;-76
2022/09/19 02:35:16;;;;;;;12.95;2.42;;;;;;;6.33;100.00;96087.97;5070318;28;20539;-77
2022/09/19 02:37:47;;;;;;;7.70;1.25;;;;;;;6.28;100.00;96080.72;5071396;28;20412;-77
2022/09/19 02:40:21;;;;;;;8.00;1.40;;;;;;;6.24;100.00;96090.53;5070774;28;20052;-77
2022/09/19 02:42:53;;;;;;;9.13;1.48;;;;;;;6.27;100.00;96089.94;5070579;28;20045;-77
2022/09/19 02:45:27;;;;;;;14.65;2.28;;;;;;;6.29;100.00;96086.94;5070910;28;20102;-77
2022/09/19 02:48:01;;;;;;;10.10;1.77;;;;;;;6.37;100.00;96083.56;5071200;28;20044;-77
2022/09/19 02:50:34;;;;;;;8.57;1.60;;;;;;;6.42;100.00;96088.06;5069611;28;20044;-77
2022/09/19 02:53:06;;;;;;;9.52;1.60;;;;;;;6.44;100.00;96094.00;5061884;28;20048;-78
2022/09/19 02:55:42;;;;;;;8.13;1.38;;;;;;;6.33;99.85;96087.16;5070007;28;20041;-77
2022/09/19 02:58:11;;;;;;;6.38;1.15;;;;;;;6.28;99.64;96090.75;5070059;28;20041;-77
2022/09/19 03:00:40;;;;;;;13.57;2.33;;;;;;;6.29;99.79;96092.34;5069419;28;20578;-78
2022/09/19 03:05:54;;;;;;;10.15;1.55;;;;;;;6.34;98.41;96094.97;5050145;28;20037;-77
2022/09/19 03:08:24;;;;;;;8.70;1.38;;;;;;;6.33;98.41;96101.47;5050347;28;20045;-77
2022/09/19 03:10:56;;;;;;;8.43;1.42;;;;;;;6.36;98.45;96100.06;5050729;28;20043;-78
2022/09/19 03:13:24;;;;;;;12.20;2.05;;;;;;;6.34;98.71;96105.78;5069519;28;20503;-78
2022/09/19 03:15:56;;;;;;;11.10;1.60;;;;;;;6.33;98.99;96100.69;5070504;28;20161;-77
2022/09/19 03:18:25;;;;;;;10.77;1.70;;;;;;;6.25;98.23;96096.75;5070297;28;20052;-78
2022/09/19 03:20:55;;;;;;;9.63;1.63;;;;;;;6.19;98.09;96095.22;5060840;28;20091;-78
2022/09/19 03:23:26;;;;;;;11.57;2.05;;;;;;;6.28;98.24;96104.28;5069004;28;20056;-78
2022/09/19 03:25:53;;;;;;;7.07;1.27;;;;;;;6.17;97.86;96098.22;5070638;28;20046;-78
2022/09/19 03:28:21;;;;;;;11.45;2.10;;;;;;;6.17;98.04;96102.84;5069901;28;20045;-77
2022/09/19 03:30:48;;;;;;;8.75;1.33;;;;;;;5.99;98.73;96105.25;5070240;28;20446;-78
2022/09/19 03:33:17;;;;;;;12.10;1.90;;;;;;;6.11;98.67;96112.09;5068253;28;20053;-78
2022/09/19 03:35:46;;;;;;;10.63;1.73;;;;;;;6.16;99.11;96103.91;5070305;28;20110;-78
2022/09/19 03:38:13;;;;;;;8.23;1.50;;;;;;;6.03;99.01;96112.78;5069539;28;20131;-77
2022/09/19 03:40:40;;;;;;;13.25;2.20;;;;;;;6.13;99.57;96115.34;5069962;28;20041;-77
2022/09/19 03:43:08;;;;;;;5.93;1.30;;;;;;;6.18;99.19;96124.16;5064304;28;20054;-78
2022/09/19 03:45:34;;;;;;;8.38;1.70;;;;;;;6.13;99.08;96126.16;5070002;28;20045;-79
2022/09/19 03:48:01;;;;;;;8.63;1.63;;;;;;;6.18;99.41;96126.06;5069141;28;20053;-78
2022/09/19 03:50:29;;;;;;;10.20;1.95;;;;;;;6.18;99.19;96134.19;5069465;28;20044;-78
2022/09/19 03:52:58;;;;;;;7.93;1.42;;;;;;;6.09;99.47;96141.34;5068705;28;20056;-77
2022/09/19 03:55:25;;;;;;;14.52;2.65;;;;;;;6.20;99.07;96138.19;5069050;28;20113;-78
2022/09/19 03:57:51;;;;;;;8.45;1.63;;;;;;;6.38;98.58;96139.25;5070404;28;20045;-78
2022/09/19 04:00:18;;;;;;;11.98;2.38;;;;;;;6.46;97.77;96133.16;5069388;28;20418;-78
2022/09/19 04:02:44;;;;;;;8.70;1.63;;;;;;;6.28;97.88;96144.84;5060467;28;20037;-77
2022/09/19 04:05:13;;;;;;;7.65;1.30;;;;;;;6.36;99.14;96152.25;5049413;28;20052;-78
2022/09/19 04:07:40;;;;;;;10.27;1.83;;;;;;;6.46;98.18;96146.69;5050580;28;20041;-78
2022/09/19 04:10:08;;;;;;;5.80;1.50;;;;;;;6.24;98.61;96154.63;5069337;28;20528;-78
2022/09/19 04:12:34;;;;;;;7.68;1.45;;;;;;;6.39;98.66;96162.50;5064240;28;20045;-77
2022/09/19 04:15:01;;;;;;;14.45;2.25;;;;;;;6.43;98.76;96158.09;5050177;28;20055;-76
2022/09/19 04:17:27;;;;;;;7.97;1.60;;;;;;;6.41;98.77;96165.69;5049348;28;20048;-78
2022/09/19 04:19:54;;;;;;;7.63;1.45;;;;;;;6.47;98.56;96169.94;5049785;28;20447;-77
2022/09/19 04:22:21;;;;;;;11.40;2.15;;;;;;;6.33;98.52;96174.50;5051699;28;20051;-77
2022/09/19 04:24:51;;;;;;;9.48;1.67;;;;;;;6.35;98.67;96166.88;5069710;28;20052;-79
2022/09/19 04:27:18;;;;;;;8.38;1.75;;;;;;;6.25;98.95;96162.44;5069382;28;20059;-78
2022/09/19 04:29:44;;;;;;;12.43;1.83;;;;;;;6.31;98.72;96171.25;5069979;28;20040;-79
2022/09/19 04:32:12;;;;;;;13.18;2.60;;;;;;;6.31;98.63;96165.06;5067428;28;20071;-78
2022/09/19 04:34:42;;;;;;;9.90;1.98;;;;;;;6.33;99.01;96179.09;5049221;28;20888;-77
2022/09/19 04:37:09;;;;;;;8.13;1.80;;;;;;;6.26;99.11;96182.16;5051084;28;20044;-76
2022/09/19 04:39:36;;;;;;;9.60;2.10;;;;;;;6.35;99.25;96180.41;5069280;28;20075;-79
2022/09/19 04:42:04;;;;;;;10.15;1.85;;;;;;;6.44;98.20;96185.97;5068650;28;20053;-76
2022/09/19 04:44:30;;;;;;;11.80;2.20;;;;;;;6.35;98.75;96199.34;5049483;28;20049;-76
2022/09/19 04:46:57;;;;;;;10.48;2.05;;;;;;;6.37;99.45;96205.28;5049425;28;20049;-76
2022/09/19 04:49:26;;;;;;;12.85;2.45;;;;;;;6.48;98.80;96206.72;5048967;28;20037;-77
2022/09/19 04:51:55;;;;;;;8.13;1.80;;;;;;;6.47;98.95;96207.81;5050110;28;20557;-76
2022/09/19 04:54:21;;;;;;;10.65;2.05;;;;;;;6.39;98.56;96210.38;5053910;28;20061;-77
2022/09/19 04:56:48;;;;;;;9.30;1.60;;;;;;;6.43;98.15;96206.78;5062294;28;20048;-77
2022/09/19 04:59:16;;;;;;;13.30;2.88;;;;;;;6.41;97.71;96208.97;5071449;28;20403;-77
2022/09/19 05:01:42;;;;;;;12.77;2.10;;;;;;;6.48;97.44;96214.03;5072997;28;20045;-76
2022/09/19 05:04:09;;;;;;;13.05;2.13;;;;;;;6.51;97.29;96218.81;5072045;28;20040;-77
2022/09/19 05:06:35;;;;;;;13.05;2.20;;;;;;;6.59;97.09;96233.59;5073047;28;20094;-77
2022/09/19 05:09:03;;;;;;;12.30;1.85;;;;;;;6.64;97.57;96231.63;5071862;28;20048;-76
2022/09/19 05:11:29;;;;;;;12.63;2.58;;;;;;;6.64;97.95;96244.34;5072042;28;20041;-77
2022/09/19 05:13:55;;;;;;;11.07;1.77;;;;;;;6.50;97.31;96239.66;5072074;28;20064;-77
2022/09/19 05:16:23;;;;;;;14.98;2.47;;;;;;;6.67;97.38;96230.22;5071902;28;20044;-77
2022/09/19 05:18:50;;;;;;;10.13;2.10;;;;;;;6.79;96.27;96244.09;5072961;28;20036;-77
2022/09/19 05:21:17;;;;;;;15.77;2.40;;;;;;;6.80;96.34;96248.41;5071713;28;20128;-77
2022/09/19 05:23:44;;;;;;;8.77;1.73;;;;;;;6.78;97.21;96245.16;5068542;28;20052;-77
2022/09/19 05:26:13;;;;;;;11.57;2.03;;;;;;;6.65;97.02;96245.94;5072084;28;20040;-78
2022/09/19 05:28:40;;;;;;;15.77;2.58;;;;;;;6.60;96.29;96246.03;5072602;28;20094;-77
2022/09/19 05:31:07;;;;;;;11.40;1.92;;;;;;;6.61;97.05;96244.91;5070782;28;20041;-77
2022/09/19 05:33:36;;;;;;;10.05;1.98;;;;;;;6.66;96.73;96242.13;5056100;28;20106;-77
2022/09/19 05:36:04;;;;;;;12.77;2.13;;;;;;;6.62;97.94;96258.16;5052236;28;20049;-77
2022/09/19 05:38:32;;;;;;;15.52;2.00;;;;;;;6.73;97.69;96261.50;5052252;28;20041;-77
2022/09/19 05:41:01;;;;;;;12.23;2.05;;;;;;;6.81;97.02;96268.94;5053034;28;20491;-77
2022/09/19 05:43:28;;;;;;;7.10;1.75;;;;;;;6.89;96.78;96264.75;5062733;28;20041;-77
2022/09/19 05:45:56;;;;;;;15.60;2.70;;;;;;;6.76;97.04;96269.03;5061510;28;20048;-78
2022/09/19 05:48:23;;;;;;;15.40;2.63;;;;;;;6.75;96.40;96283.66;5052593;28;20106;-78
2022/09/19 05:50:52;;;;;;;11.23;2.30;;;;;;;6.75;97.31;96291.78;5053479;28;20049;-78
2022/09/19 05:56:05;;;;;;;10.85;2.05;;;;;;;6.82;97.63;96284.09;5058641;28;20056;-77
2022/09/19 05:58:33;;;;;;;14.32;2.28;;;;;;;6.90;96.67;96291.53;5071849;28;20037;-78
2022/09/19 06:01:04;;;;;;;10.23;1.95;;;;;;;6.87;95.29;96292.13;5063517;28;20110;-79
2022/09/19 06:03:31;;;;;;;11.82;2.20;;;;;;;6.91;95.10;96287.72;5066232;28;20047;-77
2022/09/19 06:05:59;;;;;;;12.38;1.75;;;;;;;7.02;95.84;96289.16;5071907;28;20055;-79
2022/09/19 06:08:25;;;;;;;14.30;2.25;;;;;;;6.94;95.18;96295.28;5071529;28;20048;-77
2022/09/19 06:10:52;;;;;;;18.13;3.17;;;;;;;7.13;95.48;96306.03;5055280;28;20049;-78
2022/09/19 06:13:21;;;;;;;14.23;2.40;;;;;;;7.18;94.58;96311.38;5063590;28;20211;-78
2022/09/19 06:15:48;;;;;;;14.50;2.35;;;;;;;7.21;94.30;96312.69;5051629;28;20065;-78
2022/09/19 06:18:15;;;;;;;13.68;2.38;;;;;;;7.21;94.16;96313.50;5051136;28;20044;-78
2022/09/19 06:20:42;;;;;;;12.30;2.28;;;;;;;7.27;94.00;96319.63;5052004;28;20045;-78
2022/09/19 06:23:11;;;;;;;11.00;2.38;;;;;;;7.23;93.85;96321.31;5061027;28;20399;-77
2022/09/19 06:25:39;;;;;;;11.02;1.98;;;;;;;7.15;93.99;96321.97;5070825;28;20044;-78
2022/09/19 06:28:10;;;;;;;12.60;1.85;;;;;;;7.09;94.80;96320.47;5070748;28;20044;-79
2022/09/19 06:30:36;;;;;;;8.00;1.83;;;;;;;7.13;94.28;96326.91;5067056;28;20058;-77
2022/09/19 06:33:05;;;;;;;13.30;2.35;;;;;;;7.41;93.73;96330.47;5071176;28;20051;-79
2022/09/19 06:35:32;;;;;;;10.68;1.90;;;;;;;7.23;94.32;96332.16;5071458;28;20052;-77
2022/09/19 06:38:00;;;;;;;12.52;2.35;;;;;;;7.33;94.56;96330.06;5067076;28;20079;-77
2022/09/19 06:40:29;;;;;;;14.43;2.25;;;;;;;7.29;93.45;96329.06;5070608;28;20036;-78
2022/09/19 06:43:01;;;;;;;13.48;2.45;;;;;;;7.24;94.57;96328.34;5070174;28;20053;-77
2022/09/19 06:45:27;;;;;;;8.80;1.90;;;;;;;7.44;93.30;96343.44;5053372;28;20049;-77
2022/09/19 06:47:56;;;;;;;11.48;1.95;;;;;;;7.43;93.57;96341.84;5063248;28;20048;-77
2022/09/19 06:50:24;;;;;;;10.02;1.85;;;;;;;7.47;93.16;96349.06;5067831;28;20049;-76
2022/09/19 06:52:50;;;;;;;9.85;2.00;;;;;;;7.43;92.91;96345.34;5061397;28;20048;-76
2022/09/19 06:55:17;;;;;;;13.20;2.53;;;;;;;7.42;92.91;96351.88;5059930;28;20057;-76
2022/09/19 06:57:54;;;;;;;12.70;2.00;;;;;;;7.42;92.56;96357.28;5065392;28;20074;-75
2022/09/19 07:00:22;;;;;;;14.68;2.90;;;;;;;7.45;92.05;96364.00;5069441;28;20049;-76
2022/09/19 07:02:49;;;;;;;12.70;2.85;;;;;;;7.46;94.15;96363.69;5056824;28;20559;-76
2022/09/19 07:05:15;;;;;;;10.82;1.98;;;;;;;7.58;92.52;96371.38;5055528;28;20124;-76
2022/09/19 07:07:42;;;;;;;9.93;2.00;;;;;;;7.68;91.76;96371.19;5050520;28;20044;-77
2022/09/19 07:10:09;;;;;;;10.32;2.53;;;;;;;7.70;91.72;96376.31;5067488;28;20045;-77
2022/09/19 07:12:35;;;;;;;15.65;3.13;;;;;;;7.53;92.83;96374.97;5059881;28;20048;-78
2022/09/19 07:15:04;;;;;;;11.55;2.63;;;;;;;7.59;93.27;96379.19;5060854;28;20055;-76
2022/09/19 09:36:31;;;;;;;226.68;32.70;;;;;;;9.52;85.07;96541.22;1131725;22;20347;-78
2022/09/19 09:39:01;;;;;;;13.93;3.80;;;;;;;9.55;84.58;96541.44;4991159;28;20456;-78
2022/09/19 09:41:47;;;;;;;26.90;4.10;;;;;;;9.65;83.76;96541.16;5001538;28;20042;-77
2022/09/19 09:44:40;;;;;;;21.20;3.97;;;;;;;9.59;81.93;96536.16;4999940;28;20140;-80
2022/09/19 09:47:19;;;;;;;28.05;4.95;;;;;;;9.75;84.26;96539.34;5001032;28;20050;-77
2022/09/19 09:49:47;;;;;;;14.90;2.72;;;;;;;9.88;83.85;96542.00;4979818;28;20129;-77
2022/09/19 09:52:31;;;;;;;18.92;3.65;;;;;;;9.92;81.61;96544.91;5009001;28;20119;-78
2022/09/19 09:57:58;;;;;;;17.15;3.05;;;;;;;9.79;80.53;96543.84;5009480;28;20100;-79
2022/09/19 10:03:39;;;;;;;19.08;3.30;;;;;;;10.00;81.42;96541.44;5001996;28;20120;-80
2022/09/19 10:06:11;;;;;;;16.50;3.10;;;;;;;10.22;81.61;96537.91;5011870;28;20057;-81
2022/09/19 10:08:45;;;;;;;16.80;2.83;;;;;;;10.31;78.69;96532.56;5005864;28;20121;-81
2022/09/19 10:11:15;;;;;;;21.58;4.13;;;;;;;10.54;79.80;96539.53;4993144;28;20054;-79
2022/09/19 10:13:48;;;;;;;17.15;3.60;;;;;;;10.63;77.90;96537.69;5003448;28;20048;-81
2022/09/19 10:16:17;;;;;;;13.97;2.63;;;;;;;10.74;77.73;96548.28;5009159;28;20054;-79
2022/09/19 10:18:50;;;;;;;17.80;3.28;;;;;;;10.70;76.30;96542.66;5010974;28;20320;-79
2022/09/19 10:21:16;;;;;;;20.73;3.25;;;;;;;10.61;77.13;96548.09;5011668;28;20420;-78
2022/09/19 10:23:45;;;;;;;13.32;2.78;;;;;;;10.67;78.67;96549.56;4999670;28;20051;-80
2022/09/19 10:26:19;;;;;;;16.48;2.95;;;;;;;10.63;77.97;96548.56;4991061;28;20054;-81
2022/09/19 10:28:52;;;;;;;18.38;3.20;;;;;;;10.64;76.29;96555.63;4992737;28;20416;-76
2022/09/19 10:31:25;;;;;;;17.60;3.33;;;;;;;10.44;79.39;96556.97;4990993;28;20046;-81
2022/09/19 10:33:52;;;;;;;14.20;2.95;;;;;;;10.31;76.29;96559.78;4993319;28;20108;-79
2022/09/19 10:36:47;;;;;;;18.42;3.50;;;;;;;10.36;79.37;96559.63;5003997;28;20871;-75
2022/09/19 10:39:45;;;;;;;18.48;3.53;;;;;;;10.50;77.80;96560.38;4973310;28;20109;-78
2022/09/19 11:51:52;;;;;;;88.95;10.13;;;;;;;10.87;72.95;96571.91;6087825;23;20984;-81
2022/09/19 12:15:16;;;;;;;157.25;24.95;;;;;;;11.60;69.11;96545.00;5954857;22;20037;-82
2022/09/19 12:17:51;;;;;;;11.85;2.22;;;;;;;11.62;69.37;96538.09;5035441;28;20046;-82
2022/09/19 12:25:32;;;;;;;11.70;2.10;;;;;;;11.57;68.39;96532.00;5059806;23;20039;-82
2022/09/19 12:33:19;;;;;;;151.40;21.67;;;;;;;11.37;67.98;96528.75;5934645;22;20064;-83
2022/09/19 13:14:45;;;;;;;137.88;21.08;;;;;;;11.72;66.47;96499.59;6043784;22;20017;-81
2022/09/19 14:07:19;;;;;;;125.55;23.73;;;;;;;12.89;60.83;96504.94;5533319;22;20057;-81
2022/09/19 14:09:51;;;;;;;7.88;1.63;;;;;;;13.31;58.08;96495.75;5298511;22;20124;-81
2022/09/19 14:22:54;;;;;;;6.97;1.67;;;;;;;12.46;63.87;96495.00;5055183;23;20036;-83
2022/09/19 14:25:25;;;;;;;13.20;2.28;;;;;;;12.47;64.46;96502.06;5385085;22;20045;-82
2022/09/19 14:44:22;;;;;;;7.57;1.55;;;;;;;12.89;55.47;96494.00;5206041;23;20053;-81
2022/09/19 15:43:06;;;;;;;62.72;6.63;;;;;;;12.76;60.47;96502.09;6126198;22;20031;-80
2022/09/19 17:25:44;;;;;;;12.88;2.70;;;;;;;11.70;69.52;96548.22;5425084;23;20890;-80
2022/09/19 17:28:16;;;;;;;35.10;6.65;;;;;;;11.70;69.13;96547.41;5020318;28;20065;-80
2022/09/19 17:30:45;;;;;;;23.15;4.65;;;;;;;11.66;69.66;96554.63;5023579;28;20041;-82
2022/09/19 17:33:14;;;;;;;20.33;4.43;;;;;;;11.68;69.63;96561.34;5033390;28;20167;-82
2022/09/19 17:35:41;;;;;;;42.13;7.50;;;;;;;11.66;69.62;96558.16;5045200;28;20283;-81
2022/09/19 18:39:46;;;;;;;104.03;11.40;;;;;;;11.20;69.97;96605.84;6052771;23;20031;-82
2022/09/19 18:42:13;;;;;;;30.15;4.47;;;;;;;11.19;70.05;96612.44;4975741;28;20051;-82
2022/09/19 18:44:41;;;;;;;19.98;3.13;;;;;;;11.15;69.96;96608.72;4971626;28;20030;-82
2022/09/19 18:47:08;;;;;;;44.97;6.82;;;;;;;11.11;69.89;96612.38;4958005;28;20071;-82
2022/09/19 18:49:35;;;;;;;23.70;3.88;;;;;;;11.18;70.00;96608.09;4984684;28;20058;-83
2022/09/19 18:52:03;;;;;;;22.58;3.65;;;;;;;11.09;69.94;96614.63;4990814;28;20081;-83
2022/09/19 18:54:32;;;;;;;29.52;4.93;;;;;;;11.12;69.88;96603.91;4968914;28;20039;-82
2022/09/19 18:57:00;;;;;;;24.73;3.80;;;;;;;11.10;70.41;96606.13;4968714;28;20062;-82
2022/09/19 18:59:27;;;;;;;33.03;5.05;;;;;;;10.99;70.22;96610.25;4976042;28;20054;-82
2022/09/19 19:01:55;;;;;;;4.10;1.60;;;;;;;10.98;69.98;96605.94;5014309;23;20049;-77
2022/09/19 19:07:44;;;;;;;3.75;1.30;;;;;;;10.92;71.64;96610.72;5016154;28;20076;-77
2022/09/19 19:13:34;;;;;;;5.22;1.52;;;;;;;10.68;72.45;96616.53;5015687;28;20137;-76
2022/09/19 19:19:23;;;;;;;7.05;1.63;;;;;;;10.85;73.14;96615.00;5015789;28;20152;-78
2022/09/19 19:21:49;;;;;;;5.47;1.48;;;;;;;10.58;72.34;96627.66;5015149;28;20069;-77
2022/09/19 19:27:38;;;;;;;5.15;1.58;;;;;;;10.67;73.50;96625.81;5015842;28;20049;-77
2022/09/19 19:43:35;;;;;;;6.80;1.80;;;;;;;10.50;74.11;96636.59;4916694;29;20055;-77
2022/09/19 19:49:24;;;;;;;5.60;1.90;;;;;;;10.20;74.50;96638.91;4917393;29;20139;-79
2022/09/19 19:55:15;;;;;;;3.42;1.60;;;;;;;10.02;76.55;96636.34;4917533;29;20395;-80
2022/09/19 20:36:44;;;;;;;10.75;2.28;;;;;;;9.49;80.26;96645.94;4994027;28;20129;-75
2022/09/19 20:39:12;;;;;;;21.95;4.18;;;;;;;9.44;80.33;96646.03;4972671;28;20478;-75
2022/09/19 20:41:42;;;;;;;23.48;4.20;;;;;;;9.42;80.36;96653.69;4976510;28;20054;-76
2022/09/19 20:44:10;;;;;;;12.77;2.95;;;;;;;9.21;80.66;96649.78;4975650;28;20096;-76
2022/09/19 20:46:37;;;;;;;10.13;2.20;;;;;;;9.42;80.67;96650.97;4976648;28;20086;-76
2022/09/19 20:49:07;;;;;;;14.85;2.85;;;;;;;9.34;80.58;96648.94;4984154;28;20121;-76
2022/09/19 20:51:37;;;;;;;17.52;3.88;;;;;;;9.17;81.37;96643.31;4992566;28;20057;-76
2022/09/19 20:54:09;;;;;;;9.48;2.38;;;;;;;9.14;81.52;96640.13;4977588;28;20054;-76
2022/09/19 20:56:41;;;;;;;7.22;1.88;;;;;;;9.21;81.24;96641.63;4977663;28;20049;-76
2022/09/19 20:59:14;;;;;;;8.43;2.33;;;;;;;9.21;81.21;96634.28;4979231;28;20122;-76
2022/09/19 21:01:41;;;;;;;11.27;2.47;;;;;;;9.22;81.27;96646.75;4977035;28;20046;-76
2022/09/19 21:04:07;;;;;;;10.48;2.42;;;;;;;9.28;80.76;96640.09;4978171;28;20107;-75
2022/09/19 21:06:34;;;;;;;11.27;2.40;;;;;;;9.26;81.19;96641.53;4977854;28;20049;-74
2022/09/19 21:09:01;;;;;;;9.00;1.95;;;;;;;9.33;80.99;96640.00;4977233;28;20058;-76
2022/09/19 21:11:28;;;;;;;14.57;3.35;;;;;;;9.05;82.04;96635.69;4976312;28;20501;-76
2022/09/19 21:13:58;;;;;;;15.48;3.08;;;;;;;9.08;81.94;96630.47;4975971;28;20053;-76
2022/09/19 21:16:26;;;;;;;13.57;3.08;;;;;;;9.07;82.12;96628.81;4975919;28;20043;-76
2022/09/19 21:18:54;;;;;;;15.82;3.50;;;;;;;8.99;82.33;96637.69;4975838;28;20050;-76
2022/09/19 21:21:22;;;;;;;16.50;3.35;;;;;;;9.11;82.18;96637.19;4975629;28;20047;-76
2022/09/19 21:23:51;;;;;;;11.25;2.22;;;;;;;9.11;81.85;96634.47;4956446;29;20051;-75
2022/09/19 21:26:19;;;;;;;12.13;2.42;;;;;;;8.95;82.13;96633.16;4962281;28;20058;-76
2022/09/19 21:28:46;;;;;;;12.07;2.60;;;;;;;9.03;82.20;96633.28;4975973;28;20406;-74
2022/09/19 21:31:17;;;;;;;14.05;2.83;;;;;;;9.06;82.15;96626.41;4975800;28;20046;-76
2022/09/19 21:33:44;;;;;;;22.60;3.88;;;;;;;9.02;82.19;96626.22;4973240;28;20046;-75
2022/09/19 21:36:11;;;;;;;11.45;2.58;;;;;;;8.96;81.81;96621.97;4973415;28;20383;-74
2022/09/19 21:38:38;;;;;;;16.25;3.03;;;;;;;8.98;81.56;96625.22;5007164;28;20060;-75
2022/09/19 21:41:06;;;;;;;13.50;2.83;;;;;;;9.02;81.53;96626.22;5013484;28;21489;-74
2022/09/19 21:43:35;;;;;;;7.97;2.08;;;;;;;9.04;81.12;96617.78;5013817;28;20054;-74
2022/09/19 21:46:03;;;;;;;12.45;2.42;;;;;;;8.97;80.75;96620.88;5013942;28;20046;-74
2022/09/19 21:48:33;;;;;;;6.63;1.75;;;;;;;8.93;81.14;96621.78;5014076;28;20050;-75
2022/09/19 21:51:00;;;;;;;15.07;3.17;;;;;;;9.04;80.90;96624.00;5013769;28;20390;-75
2022/09/19 21:53:26;;;;;;;9.60;1.95;;;;;;;9.04;80.82;96624.00;5013967;28;20412;-76
2022/09/19 21:55:54;;;;;;;8.63;1.98;;;;;;;9.03;80.79;96622.41;5013956;28;20053;-75
2022/09/19 21:58:21;;;;;;;9.73;2.20;;;;;;;9.06;80.84;96621.00;5013391;28;20045;-76
2022/09/19 22:00:47;;;;;;;10.23;2.22;;;;;;;8.97;80.86;96618.16;5014245;28;20054;-74
2022/09/19 22:03:14;;;;;;;7.85;1.80;;;;;;;8.97;80.98;96611.91;5014305;28;20056;-74
2022/09/19 22:05:42;;;;;;;16.92;3.00;;;;;;;8.75;81.43;96615.31;5014041;28;20050;-76
2022/09/19 22:08:09;;;;;;;6.22;1.75;;;;;;;8.70;81.57;96624.38;5013443;28;20111;-74
2022/09/19 22:10:36;;;;;;;5.70;1.48;;;;;;;8.82;81.84;96621.16;5013538;28;20049;-74
2022/09/19 22:13:03;;;;;;;12.07;2.50;;;;;;;8.85;80.93;96621.38;5013693;28;20042;-74
2022/09/19 22:15:31;;;;;;;8.18;1.88;;;;;;;8.81;80.88;96624.97;5014412;28;20053;-74
2022/09/19 22:17:58;;;;;;;8.60;1.83;;;;;;;8.86;80.68;96622.19;5013671;28;20042;-74
2022/09/19 22:20:25;;;;;;;10.88;2.15;;;;;;;8.70;80.73;96618.13;5013351;28;20052;-74
2022/09/19 22:22:52;;;;;;;10.38;2.28;;;;;;;8.83;80.37;96623.59;5012975;28;20131;-75
2022/09/19 22:25:19;;;;;;;10.13;1.92;;;;;;;8.82;80.60;96621.16;5013334;28;20666;-75
2022/09/19 22:27:45;;;;;;;11.40;2.17;;;;;;;8.84;80.41;96618.97;5013181;28;20046;-75
2022/09/19 22:30:13;;;;;;;8.82;1.73;;;;;;;8.62;81.45;96628.59;5013250;28;20046;-75
2022/09/19 22:32:40;;;;;;;4.82;1.30;;;;;;;8.78;81.26;96622.88;5012936;28;20042;-75
2022/09/19 22:35:07;;;;;;;12.77;2.33;;;;;;;8.93;81.52;96621.78;5013327;28;20081;-74
2022/09/19 22:37:35;;;;;;;9.73;2.17;;;;;;;8.82;80.82;96622.00;5005501;28;20133;-75
2022/09/19 22:40:03;;;;;;;7.82;1.70;;;;;;;8.95;80.41;96614.94;5015130;28;20549;-74
2022/09/19 22:42:30;;;;;;;12.60;2.42;;;;;;;8.92;80.22;96615.53;5014338;28;20054;-75